createdAt,value
2022-08-25T00:00:01.000Z,1009.6
2022-08-25T00:01:17.000Z,1009.6
2022-08-25T00:02:33.000Z,1009.6
2022-08-25T00:03:49.000Z,1009.6
2022-08-25T00:05:05.000Z,1009.6
2022-08-25T00:06:21.000Z,1009.6
2022-08-25T00:07:37.000Z,1009.6
2022-08-25T00:08:53.000Z,1009.6
2022-08-25T00:10:09.000Z,1009.6
2022-08-25T00:11:25.000Z,1009.6
2022-08-25T00:12:42.000Z,1009.6
2022-08-25T00:13:58.000Z,1009.6
2022-08-25T00:15:14.000Z,1009.6
2022-08-25T00:16:30.000Z,1009.6
2022-08-25T00:17:46.000Z,1009.6
2022-08-25T00:19:02.000Z,1009.7
2022-08-25T00:20:19.000Z,1009.6
2022-08-25T00:21:35.000Z,1009.6
2022-08-25T00:22:50.790Z,1009.6
2022-08-25T00:24:06.000Z,1009.7
2022-08-25T00:25:22.000Z,1009.7
2022-08-25T00:26:39.000Z,1009.7
2022-08-25T00:27:55.000Z,1009.7
2022-08-25T00:29:11.000Z,1009.7
2022-08-25T00:30:27.000Z,1009.6
2022-08-25T00:31:43.000Z,1009.7
2022-08-25T00:33:00.000Z,1009.6
2022-08-25T00:34:16.000Z,1009.6
2022-08-25T00:35:32.000Z,1009.7
2022-08-25T00:36:48.000Z,1009.6
2022-08-25T00:38:04.000Z,1009.7
2022-08-25T00:39:20.000Z,1009.7
2022-08-25T00:40:36.000Z,1009.7
2022-08-25T00:41:52.000Z,1009.7
2022-08-25T00:43:08.000Z,1009.7
2022-08-25T00:44:24.000Z,1009.7
2022-08-25T00:45:40.000Z,1009.7
2022-08-25T00:46:57.000Z,1009.7
2022-08-25T00:48:13.000Z,1009.8
2022-08-25T00:49:29.000Z,1009.7
2022-08-25T00:50:45.000Z,1009.7
2022-08-25T00:52:01.000Z,1009.7
2022-08-25T00:53:18.000Z,1009.7
2022-08-25T00:54:34.000Z,1009.7
2022-08-25T00:55:49.000Z,1009.7
2022-08-25T00:57:05.000Z,1009.8
2022-08-25T00:58:21.000Z,1009.7
2022-08-25T00:59:38.000Z,1009.7
2022-08-25T01:00:54.000Z,1009.7
2022-08-25T01:02:10.000Z,1009.7
2022-08-25T01:03:26.000Z,1009.7
2022-08-25T01:04:42.000Z,1009.7
2022-08-25T01:05:59.000Z,1009.7
2022-08-25T01:07:15.000Z,1009.7
2022-08-25T01:08:31.000Z,1009.7
2022-08-25T01:09:47.000Z,1009.7
2022-08-25T01:11:03.000Z,1009.7
2022-08-25T01:12:18.000Z,1009.7
2022-08-25T01:13:35.000Z,1009.6
2022-08-25T01:14:51.000Z,1009.7
2022-08-25T01:16:07.000Z,1009.7
2022-08-25T01:17:23.000Z,1009.7
2022-08-25T01:18:39.000Z,1009.7
2022-08-25T01:19:56.000Z,1009.6
2022-08-25T01:21:12.000Z,1009.6
2022-08-25T01:22:28.000Z,1009.6
2022-08-25T01:23:44.000Z,1009.6
2022-08-25T01:25:00.000Z,1009.7
2022-08-25T01:26:17.000Z,1009.6
2022-08-25T01:27:33.000Z,1009.6
2022-08-25T01:28:48.000Z,1009.6
2022-08-25T01:30:04.000Z,1009.6
2022-08-25T01:31:20.000Z,1009.6
2022-08-25T01:32:36.000Z,1009.6
2022-08-25T01:33:53.000Z,1009.6
2022-08-25T01:35:09.000Z,1009.6
2022-08-25T01:36:25.000Z,1009.7
2022-08-25T01:37:41.000Z,1009.6
2022-08-25T01:38:57.000Z,1009.7
2022-08-25T01:40:14.000Z,1009.6
2022-08-25T01:41:30.000Z,1009.7
2022-08-25T01:42:46.000Z,1009.6
2022-08-25T01:44:02.000Z,1009.7
2022-08-25T01:45:17.000Z,1009.7
2022-08-25T01:46:34.000Z,1009.6
2022-08-25T01:47:50.000Z,1009.7
2022-08-25T01:49:06.000Z,1009.7
2022-08-25T01:50:22.000Z,1009.7
2022-08-25T01:51:38.000Z,1009.7
2022-08-25T01:52:55.000Z,1009.7
2022-08-25T01:54:11.000Z,1009.6
2022-08-25T01:55:27.000Z,1009.7
2022-08-25T01:56:43.000Z,1009.6
2022-08-25T01:57:59.000Z,1009.6
2022-08-25T01:59:15.000Z,1009.6
2022-08-25T02:00:32.000Z,1009.6
2022-08-25T02:01:47.000Z,1009.6
2022-08-25T02:03:03.000Z,1009.6
2022-08-25T02:04:19.000Z,1009.7
2022-08-25T02:05:35.000Z,1009.6
2022-08-25T02:06:52.000Z,1009.6
2022-08-25T02:08:08.000Z,1009.6
2022-08-25T02:09:24.000Z,1009.6
2022-08-25T02:10:40.000Z,1009.6
2022-08-25T02:11:56.000Z,1009.6
2022-08-25T02:13:13.000Z,1009.5
2022-08-25T02:14:29.000Z,1009.6
2022-08-25T02:15:45.000Z,1009.6
2022-08-25T02:17:01.000Z,1009.5
2022-08-25T02:18:16.000Z,1009.5
2022-08-25T02:19:33.000Z,1009.5
2022-08-25T02:20:49.000Z,1009.6
2022-08-25T02:22:05.000Z,1009.6
2022-08-25T02:23:21.000Z,1009.5
2022-08-25T02:24:37.000Z,1009.5
2022-08-25T02:25:53.000Z,1009.6
2022-08-25T02:27:10.000Z,1009.5
2022-08-25T02:28:26.000Z,1009.5
2022-08-25T02:29:42.000Z,1009.5
2022-08-25T02:30:58.000Z,1009.5
2022-08-25T02:32:14.000Z,1009.5
2022-08-25T02:33:31.000Z,1009.5
2022-08-25T02:34:46.000Z,1009.5
2022-08-25T02:36:02.000Z,1009.6
2022-08-25T02:37:18.000Z,1009.5
2022-08-25T02:38:34.000Z,1009.5
2022-08-25T02:39:51.000Z,1009.6
2022-08-25T02:41:07.000Z,1009.5
2022-08-25T02:42:23.000Z,1009.5
2022-08-25T02:43:39.000Z,1009.5
2022-08-25T02:44:55.000Z,1009.6
2022-08-25T02:46:11.000Z,1009.6
2022-08-25T02:47:28.000Z,1009.5
2022-08-25T02:48:44.000Z,1009.5
2022-08-25T02:50:00.000Z,1009.6
2022-08-25T02:51:15.000Z,1009.5
2022-08-25T02:52:31.000Z,1009.4
2022-08-25T02:53:48.000Z,1009.5
2022-08-25T02:55:04.000Z,1009.5
2022-08-25T02:56:20.000Z,1009.5
2022-08-25T02:57:36.000Z,1009.4
2022-08-25T02:58:51.000Z,1009.5
2022-08-25T03:00:08.000Z,1009.4
2022-08-25T03:01:24.000Z,1009.6
2022-08-25T03:02:40.000Z,1009.6
2022-08-25T03:03:56.000Z,1009.6
2022-08-25T03:05:12.000Z,1009.6
2022-08-25T03:06:29.000Z,1009.6
2022-08-25T03:07:45.000Z,1009.6
2022-08-25T03:09:01.000Z,1009.6
2022-08-25T03:10:17.000Z,1009.6
2022-08-25T03:11:33.000Z,1009.6
2022-08-25T03:12:49.000Z,1009.6
2022-08-25T03:14:06.000Z,1009.6
2022-08-25T03:15:21.000Z,1009.6
2022-08-25T03:16:37.000Z,1009.6
2022-08-25T03:17:53.000Z,1009.6
2022-08-25T03:19:09.000Z,1009.5
2022-08-25T03:20:26.000Z,1009.6
2022-08-25T03:21:42.000Z,1009.6
2022-08-25T03:22:58.000Z,1009.5
2022-08-25T03:24:14.000Z,1009.5
2022-08-25T03:25:30.000Z,1009.5
2022-08-25T03:26:47.000Z,1009.6
2022-08-25T03:28:03.000Z,1009.5
2022-08-25T03:29:19.000Z,1009.4
2022-08-25T03:30:35.000Z,1009.5
2022-08-25T03:31:50.000Z,1009.5
2022-08-25T03:33:07.000Z,1009.4
2022-08-25T03:34:23.000Z,1009.5
2022-08-25T03:35:39.000Z,1009.4
2022-08-25T03:36:55.840Z,1009.5
2022-08-25T03:38:11.000Z,1009.4
2022-08-25T03:39:27.000Z,1009.4
2022-08-25T03:40:44.000Z,1009.5
2022-08-25T03:42:00.000Z,1009.4
2022-08-25T03:43:16.000Z,1009.4
2022-08-25T03:44:32.000Z,1009.4
2022-08-25T03:45:48.000Z,1009.4
2022-08-25T03:47:05.000Z,1009.3
2022-08-25T03:48:20.000Z,1009.3
2022-08-25T03:49:36.000Z,1009.3
2022-08-25T03:50:52.000Z,1009.3
2022-08-25T03:52:08.000Z,1009.3
2022-08-25T03:53:25.000Z,1009.3
2022-08-25T03:54:41.000Z,1009.3
2022-08-25T03:55:57.000Z,1009.2
2022-08-25T03:57:13.000Z,1009.2
2022-08-25T03:58:29.000Z,1009.1
2022-08-25T03:59:46.000Z,1009.2
2022-08-25T04:01:02.000Z,1009.1
2022-08-25T04:02:18.000Z,1009.2
2022-08-25T04:03:34.000Z,1009.1
2022-08-25T04:04:49.000Z,1009.1
2022-08-25T04:06:05.000Z,1009.2
2022-08-25T04:07:22.000Z,1009.2
2022-08-25T04:08:38.000Z,1009.1
2022-08-25T04:09:54.000Z,1009.1
2022-08-25T04:11:10.000Z,1009.1
2022-08-25T04:12:26.000Z,1009.1
2022-08-25T04:13:43.000Z,1009.2
2022-08-25T04:14:59.000Z,1009.1
2022-08-25T04:16:15.000Z,1009.1
2022-08-25T04:17:31.000Z,1009.1
2022-08-25T04:18:47.000Z,1009.1
2022-08-25T04:20:04.000Z,1009.1
2022-08-25T04:21:19.000Z,1009.1
2022-08-25T04:22:35.000Z,1009.2
2022-08-25T04:23:51.000Z,1009.1
2022-08-25T04:25:07.000Z,1009.2
2022-08-25T04:26:24.000Z,1009.2
2022-08-25T04:27:40.000Z,1009.2
2022-08-25T04:28:56.000Z,1009.2
2022-08-25T04:30:12.000Z,1009.2
2022-08-25T04:31:28.000Z,1009.1
2022-08-25T04:32:44.000Z,1009.1
2022-08-25T04:34:01.000Z,1009.1
2022-08-25T04:35:17.000Z,1009.1
2022-08-25T04:36:33.000Z,1009.1
2022-08-25T04:37:48.000Z,1009.1
2022-08-25T04:39:04.000Z,1009.1
2022-08-25T04:40:21.000Z,1009.1
2022-08-25T04:41:37.000Z,1009.1
2022-08-25T04:42:53.000Z,1009.1
2022-08-25T04:44:09.000Z,1009.1
2022-08-25T04:45:25.000Z,1009
2022-08-25T04:46:42.000Z,1009.1
2022-08-25T04:47:58.000Z,1009
2022-08-25T04:49:14.000Z,1009
2022-08-25T04:50:30.000Z,1009
2022-08-25T04:51:46.000Z,1009
2022-08-25T04:53:02.000Z,1009
2022-08-25T04:54:18.000Z,1009
2022-08-25T04:55:34.000Z,1009
2022-08-25T04:56:50.000Z,1009
2022-08-25T04:58:06.000Z,1009
2022-08-25T04:59:22.000Z,1009
2022-08-25T05:00:39.000Z,1009
2022-08-25T05:01:55.000Z,1009
2022-08-25T05:03:11.000Z,1008.9
2022-08-25T05:04:27.000Z,1009
2022-08-25T05:05:43.000Z,1008.9
2022-08-25T05:07:00.000Z,1008.9
2022-08-25T05:08:16.000Z,1008.9
2022-08-25T05:09:32.000Z,1008.9
2022-08-25T05:10:47.000Z,1008.9
2022-08-25T05:12:03.000Z,1008.9
2022-08-25T05:13:20.000Z,1008.9
2022-08-25T05:14:36.000Z,1008.9
2022-08-25T05:15:52.000Z,1008.9
2022-08-25T05:17:08.000Z,1008.8
2022-08-25T05:18:24.000Z,1008.9
2022-08-25T05:19:40.000Z,1009
2022-08-25T05:20:57.000Z,1008.9
2022-08-25T05:22:13.000Z,1008.9
2022-08-25T05:23:29.000Z,1008.9
2022-08-25T05:24:45.000Z,1008.8
2022-08-25T05:26:01.000Z,1008.9
2022-08-25T05:27:17.000Z,1009
2022-08-25T05:28:33.000Z,1008.9
2022-08-25T05:29:49.000Z,1009
2022-08-25T05:31:05.000Z,1009.1
2022-08-25T05:32:21.000Z,1009
2022-08-25T05:33:38.000Z,1009.1
2022-08-25T05:34:54.000Z,1009
2022-08-25T05:36:10.000Z,1009.1
2022-08-25T05:37:26.000Z,1009
2022-08-25T05:38:42.000Z,1009
2022-08-25T05:39:59.000Z,1008.9
2022-08-25T05:41:15.000Z,1009
2022-08-25T05:42:31.000Z,1008.9
2022-08-25T05:43:46.000Z,1009
2022-08-25T05:45:02.000Z,1008.8
2022-08-25T05:46:18.000Z,1008.9
2022-08-25T05:47:35.000Z,1008.9
2022-08-25T05:48:51.000Z,1008.9
2022-08-25T05:50:07.000Z,1008.9
2022-08-25T05:51:23.000Z,1008.9
2022-08-25T05:52:39.000Z,1008.8
2022-08-25T05:53:56.000Z,1008.8
2022-08-25T05:55:12.000Z,1008.9
2022-08-25T05:56:28.000Z,1008.8
2022-08-25T05:57:44.000Z,1008.8
2022-08-25T05:59:00.000Z,1008.8
2022-08-25T06:00:16.000Z,1008.8
2022-08-25T06:01:32.000Z,1008.7
2022-08-25T06:02:48.000Z,1008.7
2022-08-25T06:04:04.000Z,1008.7
2022-08-25T06:05:20.000Z,1008.8
2022-08-25T06:06:37.000Z,1008.8
2022-08-25T06:07:53.000Z,1008.7
2022-08-25T06:09:09.000Z,1008.8
2022-08-25T06:10:25.000Z,1008.7
2022-08-25T06:11:41.000Z,1008.8
2022-08-25T06:12:57.000Z,1008.8
2022-08-25T06:14:14.000Z,1008.8
2022-08-25T06:15:30.000Z,1008.8
2022-08-25T06:16:45.000Z,1008.7
2022-08-25T06:18:01.000Z,1008.8
2022-08-25T06:19:17.000Z,1008.7
2022-08-25T06:20:34.000Z,1008.7
2022-08-25T06:21:50.000Z,1008.7
2022-08-25T06:23:06.000Z,1008.6
2022-08-25T06:24:22.000Z,1008.7
2022-08-25T06:25:38.000Z,1008.7
2022-08-25T06:26:55.000Z,1008.6
2022-08-25T06:28:11.000Z,1008.6
2022-08-25T06:29:27.000Z,1008.6
2022-08-25T06:30:43.000Z,1008.7
2022-08-25T06:32:00.039Z,1008.7
2022-08-25T06:33:15.000Z,1008.7
2022-08-25T06:34:31.000Z,1008.7
2022-08-25T06:35:47.000Z,1008.6
2022-08-25T06:37:03.000Z,1008.6
2022-08-25T06:38:19.000Z,1008.7
2022-08-25T06:39:35.000Z,1008.7
2022-08-25T06:40:52.000Z,1008.6
2022-08-25T06:42:08.000Z,1008.6
2022-08-25T06:43:24.000Z,1008.6
2022-08-25T06:44:40.000Z,1008.6
2022-08-25T06:45:56.000Z,1008.7
2022-08-25T06:47:13.000Z,1008.7
2022-08-25T06:48:29.000Z,1008.8
2022-08-25T06:49:44.000Z,1008.7
2022-08-25T06:51:00.000Z,1008.8
2022-08-25T06:52:16.000Z,1008.8
2022-08-25T06:53:33.000Z,1008.8
2022-08-25T06:54:49.000Z,1008.7
2022-08-25T06:56:05.000Z,1008.8
2022-08-25T06:57:21.000Z,1008.8
2022-08-25T06:58:37.000Z,1008.7
2022-08-25T06:59:53.000Z,1008.6
2022-08-25T07:01:10.000Z,1008.7
2022-08-25T07:02:26.000Z,1008.6
2022-08-25T07:03:42.000Z,1008.7
2022-08-25T07:04:58.000Z,1008.6
2022-08-25T07:06:13.000Z,1008.7
2022-08-25T07:07:30.000Z,1008.7
2022-08-25T07:08:46.000Z,1008.7
2022-08-25T07:10:02.000Z,1008.7
2022-08-25T07:11:18.000Z,1008.7
2022-08-25T07:12:34.000Z,1008.7
2022-08-25T07:13:50.000Z,1008.7
2022-08-25T07:15:06.000Z,1008.8
2022-08-25T07:16:22.000Z,1008.7
2022-08-25T07:17:38.000Z,1008.7
2022-08-25T07:18:54.000Z,1008.7
2022-08-25T07:20:11.000Z,1008.8
2022-08-25T07:21:27.000Z,1008.7
2022-08-25T07:22:43.000Z,1008.7
2022-08-25T07:23:59.000Z,1008.8
2022-08-25T07:25:15.000Z,1008.8
2022-08-25T07:26:31.000Z,1008.8
2022-08-25T07:27:48.000Z,1008.8
2022-08-25T07:29:04.000Z,1008.8
2022-08-25T07:30:19.000Z,1008.8
2022-08-25T07:31:35.000Z,1008.8
2022-08-25T07:32:51.000Z,1008.9
2022-08-25T07:34:08.000Z,1008.9
2022-08-25T07:35:24.000Z,1008.9
2022-08-25T07:36:40.000Z,1008.9
2022-08-25T07:37:56.000Z,1008.9
2022-08-25T07:39:12.000Z,1008.9
2022-08-25T07:40:29.000Z,1008.9
2022-08-25T07:41:45.000Z,1008.9
2022-08-25T07:43:01.000Z,1008.9
2022-08-25T07:44:17.000Z,1008.9
2022-08-25T07:45:33.000Z,1009
2022-08-25T07:46:48.000Z,1009
2022-08-25T07:48:05.000Z,1009
2022-08-25T07:49:21.000Z,1009
2022-08-25T07:50:37.000Z,1009
2022-08-25T07:51:53.000Z,1009
2022-08-25T07:53:09.000Z,1009
2022-08-25T07:54:26.000Z,1009
2022-08-25T07:55:42.000Z,1009
2022-08-25T07:56:58.000Z,1009
2022-08-25T07:58:14.000Z,1009
2022-08-25T07:59:30.000Z,1009
2022-08-25T08:00:47.000Z,1008.9
2022-08-25T08:02:03.000Z,1008.9
2022-08-25T08:03:18.000Z,1008.9
2022-08-25T08:04:34.000Z,1008.9
2022-08-25T08:05:50.000Z,1008.9
2022-08-25T08:07:06.000Z,1008.8
2022-08-25T08:08:23.000Z,1008.8
2022-08-25T08:09:39.000Z,1008.8
2022-08-25T08:10:55.000Z,1008.8
2022-08-25T08:12:11.000Z,1008.8
2022-08-25T08:13:27.000Z,1008.8
2022-08-25T08:14:44.000Z,1008.8
2022-08-25T08:16:00.000Z,1008.9
2022-08-25T08:17:16.000Z,1008.9
2022-08-25T08:18:32.000Z,1008.8
2022-08-25T08:19:47.000Z,1008.8
2022-08-25T08:21:04.000Z,1008.9
2022-08-25T08:22:20.000Z,1008.8
2022-08-25T08:23:36.000Z,1008.8
2022-08-25T08:24:52.000Z,1008.8
2022-08-25T08:26:08.000Z,1008.7
2022-08-25T08:27:25.000Z,1008.7
2022-08-25T08:28:41.000Z,1008.7
2022-08-25T08:29:57.000Z,1008.7
2022-08-25T08:31:13.000Z,1008.7
2022-08-25T08:32:29.000Z,1008.7
2022-08-25T08:33:45.000Z,1008.7
2022-08-25T08:35:02.000Z,1008.7
2022-08-25T08:36:17.000Z,1008.6
2022-08-25T08:37:33.000Z,1008.6
2022-08-25T08:38:49.000Z,1008.6
2022-08-25T08:40:05.000Z,1008.6
2022-08-25T08:41:22.000Z,1008.6
2022-08-25T08:42:38.000Z,1008.6
2022-08-25T08:43:54.000Z,1008.6
2022-08-25T08:45:10.000Z,1008.5
2022-08-25T08:46:26.000Z,1008.6
2022-08-25T08:47:43.000Z,1008.5
2022-08-25T08:48:59.000Z,1008.4
2022-08-25T08:50:15.000Z,1008.5
2022-08-25T08:51:31.000Z,1008.4
2022-08-25T08:52:46.000Z,1008.4
2022-08-25T08:54:02.000Z,1008.4
2022-08-25T08:55:19.000Z,1008.4
2022-08-25T08:56:35.000Z,1008.5
2022-08-25T08:57:51.000Z,1008.4
2022-08-25T08:59:07.000Z,1008.4
2022-08-25T09:00:23.000Z,1008.5
2022-08-25T09:01:40.000Z,1008.4
2022-08-25T09:02:56.000Z,1008.5
2022-08-25T09:04:12.000Z,1008.4
2022-08-25T09:05:28.000Z,1008.3
2022-08-25T09:06:44.000Z,1008.3
2022-08-25T09:08:01.000Z,1008.3
2022-08-25T09:09:16.000Z,1008.3
2022-08-25T09:10:32.000Z,1008.2
2022-08-25T09:11:48.000Z,1008.2
2022-08-25T09:13:04.000Z,1008.3
2022-08-25T09:14:20.000Z,1008.3
2022-08-25T09:15:37.000Z,1008.3
2022-08-25T09:16:53.000Z,1008.3
2022-08-25T09:18:09.000Z,1008.3
2022-08-25T09:19:25.000Z,1008.2
2022-08-25T09:20:41.000Z,1008.3
2022-08-25T09:21:58.000Z,1008.3
2022-08-25T09:23:14.000Z,1008.3
2022-08-25T09:24:30.000Z,1008.2
2022-08-25T09:25:45.000Z,1008.2
2022-08-25T09:27:01.000Z,1008.3
2022-08-25T09:28:18.000Z,1008.2
2022-08-25T09:29:34.000Z,1008.2
2022-08-25T09:30:50.000Z,1008.2
2022-08-25T09:32:06.000Z,1008.2
2022-08-25T09:33:22.000Z,1008.2
2022-08-25T09:34:39.000Z,1008.1
2022-08-25T09:35:55.000Z,1008
2022-08-25T09:37:11.000Z,1008.1
2022-08-25T09:38:27.000Z,1008
2022-08-25T09:39:43.000Z,1008
2022-08-25T09:40:59.000Z,1008
2022-08-25T09:42:15.000Z,1008
2022-08-25T09:43:31.000Z,1007.9
2022-08-25T09:44:47.000Z,1008
2022-08-25T09:46:03.000Z,1008
2022-08-25T09:47:19.000Z,1007.9
2022-08-25T09:48:36.000Z,1008
2022-08-25T09:49:52.000Z,1008
2022-08-25T09:51:08.000Z,1008
2022-08-25T09:52:24.000Z,1007.9
2022-08-25T09:53:40.000Z,1007.9
2022-08-25T09:54:57.000Z,1008
2022-08-25T09:56:13.000Z,1008
2022-08-25T09:57:29.000Z,1007.9
2022-08-25T09:58:44.000Z,1007.9
2022-08-25T10:00:00.000Z,1007.8
2022-08-25T10:01:16.000Z,1007.8
2022-08-25T10:02:33.000Z,1007.8
2022-08-25T10:03:49.000Z,1007.8
2022-08-25T10:05:05.000Z,1007.7
2022-08-25T10:06:21.000Z,1007.7
2022-08-25T10:07:37.000Z,1007.7
2022-08-25T10:08:54.000Z,1007.7
2022-08-25T10:10:10.000Z,1007.6
2022-08-25T10:11:26.000Z,1007.7
2022-08-25T10:12:42.000Z,1007.7
2022-08-25T10:13:58.000Z,1007.6
2022-08-25T10:15:14.000Z,1007.6
2022-08-25T10:16:30.000Z,1007.6
2022-08-25T10:17:46.000Z,1007.5
2022-08-25T10:19:02.000Z,1007.5
2022-08-25T10:20:18.000Z,1007.5
2022-08-25T10:21:34.000Z,1007.4
2022-08-25T10:22:51.000Z,1007.4
2022-08-25T10:24:07.000Z,1007.3
2022-08-25T10:25:23.000Z,1007.4
2022-08-25T10:26:39.000Z,1007.3
2022-08-25T10:27:55.000Z,1007.3
2022-08-25T10:29:12.000Z,1007.4
2022-08-25T10:30:28.000Z,1007.3
2022-08-25T10:31:43.000Z,1007.2
2022-08-25T10:32:59.000Z,1007.3
2022-08-25T10:34:15.000Z,1007.2
2022-08-25T10:35:32.000Z,1007.2
2022-08-25T10:36:48.000Z,1007.1
2022-08-25T10:38:04.000Z,1007.1
2022-08-25T10:39:20.000Z,1007.2
2022-08-25T10:40:36.000Z,1007.1
2022-08-25T10:41:53.000Z,1007
2022-08-25T10:43:09.000Z,1007
2022-08-25T10:44:25.000Z,1006.9
2022-08-25T10:45:41.000Z,1006.9
2022-08-25T10:46:57.000Z,1007
2022-08-25T10:48:12.000Z,1006.9
2022-08-25T10:49:29.000Z,1006.8
2022-08-25T10:50:45.000Z,1006.9
2022-08-25T10:52:01.000Z,1006.9
2022-08-25T10:53:17.000Z,1006.7
2022-08-25T10:54:33.000Z,1006.8
2022-08-25T10:55:50.000Z,1006.8
2022-08-25T10:57:06.000Z,1006.8
2022-08-25T10:58:22.000Z,1006.7
2022-08-25T10:59:38.000Z,1006.7
2022-08-25T11:00:54.000Z,1006.7
2022-08-25T11:02:11.000Z,1006.7
2022-08-25T11:03:27.000Z,1006.8
2022-08-25T11:04:42.000Z,1006.8
2022-08-25T11:05:58.000Z,1006.7
2022-08-25T11:07:14.000Z,1006.7
2022-08-25T11:08:31.000Z,1006.7
2022-08-25T11:09:47.000Z,1006.7
2022-08-25T11:11:03.000Z,1006.7
2022-08-25T11:12:19.000Z,1006.6
2022-08-25T11:13:35.000Z,1006.7
2022-08-25T11:14:51.000Z,1006.7
2022-08-25T11:16:08.000Z,1006.6
2022-08-25T11:17:24.000Z,1006.6
2022-08-25T11:18:40.000Z,1006.6
2022-08-25T11:19:56.000Z,1006.7
2022-08-25T11:21:11.000Z,1006.6
2022-08-25T11:22:28.000Z,1006.6
2022-08-25T11:23:44.000Z,1006.7
2022-08-25T11:25:00.000Z,1006.7
2022-08-25T11:26:16.000Z,1006.6
2022-08-25T11:27:32.000Z,1006.5
2022-08-25T11:28:48.000Z,1006.5
2022-08-25T11:30:04.000Z,1006.6
2022-08-25T11:31:20.000Z,1006.6
2022-08-25T11:32:36.000Z,1006.6
2022-08-25T11:33:52.000Z,1006.6
2022-08-25T11:35:09.000Z,1006.6
2022-08-25T11:36:25.000Z,1006.6
2022-08-25T11:37:41.000Z,1006.6
2022-08-25T11:38:57.000Z,1006.7
2022-08-25T11:40:13.000Z,1006.5
2022-08-25T11:41:29.000Z,1006.5
2022-08-25T11:42:46.000Z,1006.5
2022-08-25T11:44:02.000Z,1006.5
2022-08-25T11:45:17.000Z,1006.6
2022-08-25T11:46:33.000Z,1006.6
2022-08-25T11:47:49.000Z,1006.5
2022-08-25T11:49:06.000Z,1006.6
2022-08-25T11:50:22.000Z,1006.6
2022-08-25T11:51:38.000Z,1006.6
2022-08-25T11:52:54.000Z,1006.6
2022-08-25T11:54:10.000Z,1006.6
2022-08-25T11:55:27.000Z,1006.6
2022-08-25T11:56:43.000Z,1006.6
2022-08-25T11:57:59.000Z,1006.6
2022-08-25T11:59:15.000Z,1006.5
2022-08-25T12:00:31.000Z,1006.4
2022-08-25T12:01:47.000Z,1006.5
2022-08-25T12:03:03.000Z,1006.4
2022-08-25T12:04:19.000Z,1006.5
2022-08-25T12:05:35.000Z,1006.5
2022-08-25T12:06:51.000Z,1006.5
2022-08-25T12:08:07.000Z,1006.5
2022-08-25T12:09:24.000Z,1006.6
2022-08-25T12:10:40.000Z,1006.5
2022-08-25T12:11:56.000Z,1006.5
2022-08-25T12:13:12.000Z,1006.4
2022-08-25T12:14:28.000Z,1006.4
2022-08-25T12:15:45.000Z,1006.4
2022-08-25T12:17:01.000Z,1006.5
2022-08-25T12:18:16.000Z,1006.5
2022-08-25T12:19:32.000Z,1006.4
2022-08-25T12:20:48.000Z,1006.4
2022-08-25T12:22:05.000Z,1006.4
2022-08-25T12:23:21.000Z,1006.4
2022-08-25T12:24:37.000Z,1006.4
2022-08-25T12:25:53.000Z,1006.4
2022-08-25T12:27:09.000Z,1006.3
2022-08-25T12:28:26.000Z,1006.4
2022-08-25T12:29:42.000Z,1006.4
2022-08-25T12:30:58.000Z,1006.4
2022-08-25T12:32:14.000Z,1006.4
2022-08-25T12:33:30.000Z,1006.4
2022-08-25T12:34:46.000Z,1006.4
2022-08-25T12:36:02.000Z,1006.3
2022-08-25T12:37:18.000Z,1006.3
2022-08-25T12:38:34.000Z,1006.3
2022-08-25T12:39:50.000Z,1006.3
2022-08-25T12:41:06.000Z,1006.2
2022-08-25T12:42:23.000Z,1006.2
2022-08-25T12:43:39.000Z,1006.2
2022-08-25T12:44:55.000Z,1006.2
2022-08-25T12:46:11.000Z,1006.2
2022-08-25T12:47:27.000Z,1006.2
2022-08-25T12:48:44.000Z,1006.1
2022-08-25T12:50:00.000Z,1006.1
2022-08-25T12:51:15.000Z,1006
2022-08-25T12:52:31.000Z,1005.9
2022-08-25T12:53:47.000Z,1006.1
2022-08-25T12:55:04.000Z,1006
2022-08-25T12:56:20.000Z,1006.1
2022-08-25T12:57:36.000Z,1006
2022-08-25T12:58:52.000Z,1006
2022-08-25T13:00:08.000Z,1006
2022-08-25T13:01:25.000Z,1006.1
2022-08-25T13:02:41.000Z,1006
2022-08-25T13:03:57.000Z,1006
2022-08-25T13:05:13.000Z,1006
2022-08-25T13:06:29.000Z,1005.9
2022-08-25T13:07:44.000Z,1005.9
2022-08-25T13:09:01.000Z,1005.9
2022-08-25T13:10:17.000Z,1005.8
2022-08-25T13:11:33.000Z,1005.8
2022-08-25T13:12:49.000Z,1005.8
2022-08-25T13:14:05.000Z,1005.8
2022-08-25T13:15:22.000Z,1005.8
2022-08-25T13:16:38.000Z,1005.8
2022-08-25T13:17:54.000Z,1005.7
2022-08-25T13:19:10.000Z,1005.8
2022-08-25T13:20:26.000Z,1005.8
2022-08-25T13:21:43.000Z,1005.8
2022-08-25T13:22:59.000Z,1005.7
2022-08-25T13:24:14.000Z,1005.7
2022-08-25T13:25:30.000Z,1005.6
2022-08-25T13:26:46.000Z,1005.6
2022-08-25T13:28:03.000Z,1005.7
2022-08-25T13:29:19.000Z,1005.7
2022-08-25T13:30:35.000Z,1005.7
2022-08-25T13:31:51.000Z,1005.7
2022-08-25T13:33:07.000Z,1005.6
2022-08-25T13:34:23.000Z,1005.6
2022-08-25T13:35:40.000Z,1005.6
2022-08-25T13:36:56.000Z,1005.6
2022-08-25T13:38:12.000Z,1005.5
2022-08-25T13:39:28.000Z,1005.5
2022-08-25T13:40:43.000Z,1005.5
2022-08-25T13:42:00.000Z,1005.4
2022-08-25T13:43:16.000Z,1005.4
2022-08-25T13:44:32.000Z,1005.3
2022-08-25T13:45:48.000Z,1005.4
2022-08-25T13:47:04.000Z,1005.3
2022-08-25T13:48:21.000Z,1005.4
2022-08-25T13:49:37.000Z,1005.4
2022-08-25T13:50:53.000Z,1005.3
2022-08-25T13:52:09.000Z,1005.3
2022-08-25T13:53:25.000Z,1005.4
2022-08-25T13:54:42.000Z,1005.3
2022-08-25T13:55:58.000Z,1005.2
2022-08-25T13:57:13.000Z,1005.3
2022-08-25T13:58:29.000Z,1005.3
2022-08-25T13:59:45.000Z,1005.4
2022-08-25T14:01:02.000Z,1005.3
2022-08-25T14:02:18.000Z,1005.3
2022-08-25T14:03:34.000Z,1005.3
2022-08-25T14:04:50.000Z,1005.3
2022-08-25T14:06:06.000Z,1005.3
2022-08-25T14:07:22.000Z,1005.3
2022-08-25T14:08:39.000Z,1005.2
2022-08-25T14:09:55.000Z,1005.3
2022-08-25T14:11:11.000Z,1005.2
2022-08-25T14:12:27.000Z,1005.1
2022-08-25T14:13:42.000Z,1005.1
2022-08-25T14:14:59.000Z,1005.2
2022-08-25T14:16:15.000Z,1005.2
2022-08-25T14:17:31.000Z,1005.2
2022-08-25T14:18:47.000Z,1005.2
2022-08-25T14:20:03.000Z,1005.1
2022-08-25T14:21:20.000Z,1005.2
2022-08-25T14:22:36.000Z,1005
2022-08-25T14:23:52.000Z,1005
2022-08-25T14:25:08.000Z,1005.1
2022-08-25T14:26:24.000Z,1005.1
2022-08-25T14:27:41.000Z,1005.1
2022-08-25T14:28:57.000Z,1005.1
2022-08-25T14:30:12.000Z,1005
2022-08-25T14:31:28.000Z,1005.1
2022-08-25T14:32:44.000Z,1005.1
2022-08-25T14:34:00.000Z,1005.1
2022-08-25T14:35:17.000Z,1005
2022-08-25T14:36:33.000Z,1005
2022-08-25T14:37:49.000Z,1005.1
2022-08-25T14:39:05.000Z,1005
2022-08-25T14:40:21.000Z,1005
2022-08-25T14:41:38.000Z,1005.1
2022-08-25T14:42:54.000Z,1005
2022-08-25T14:44:10.000Z,1004.9
2022-08-25T14:45:26.000Z,1005
2022-08-25T14:46:41.000Z,1005
2022-08-25T14:47:58.000Z,1005
2022-08-25T14:49:14.000Z,1004.9
2022-08-25T14:50:30.000Z,1005.1
2022-08-25T14:51:46.000Z,1004.9
2022-08-25T14:53:02.000Z,1004.9
2022-08-25T14:54:19.000Z,1004.9
2022-08-25T14:55:35.000Z,1004.8
2022-08-25T14:56:51.000Z,1005
2022-08-25T14:58:07.000Z,1005
2022-08-25T14:59:23.000Z,1004.9
2022-08-25T15:00:39.000Z,1004.9
2022-08-25T15:01:56.000Z,1004.9
2022-08-25T15:03:11.000Z,1005
2022-08-25T15:04:27.000Z,1004.8
2022-08-25T15:05:43.000Z,1004.8
2022-08-25T15:06:59.000Z,1004.9
2022-08-25T15:08:16.000Z,1004.9
2022-08-25T15:09:32.000Z,1004.8
2022-08-25T15:10:48.000Z,1004.9
2022-08-25T15:12:04.000Z,1004.8
2022-08-25T15:13:20.000Z,1004.7
2022-08-25T15:14:37.000Z,1004.7
2022-08-25T15:15:53.000Z,1004.8
2022-08-25T15:17:09.000Z,1004.8
2022-08-25T15:18:25.000Z,1004.7
2022-08-25T15:19:40.000Z,1004.7
2022-08-25T15:20:57.000Z,1004.7
2022-08-25T15:22:13.000Z,1004.7
2022-08-25T15:23:29.000Z,1004.7
2022-08-25T15:24:45.000Z,1004.8
2022-08-25T15:26:01.000Z,1004.8
2022-08-25T15:27:17.000Z,1004.8
2022-08-25T15:28:34.000Z,1004.7
2022-08-25T15:29:50.000Z,1004.7
2022-08-25T15:31:06.000Z,1004.7
2022-08-25T15:32:22.000Z,1004.6
2022-08-25T15:33:38.000Z,1004.7
2022-08-25T15:34:55.000Z,1004.6
2022-08-25T15:36:10.000Z,1004.6
2022-08-25T15:37:26.000Z,1004.6
2022-08-25T15:38:42.000Z,1004.6
2022-08-25T15:39:58.000Z,1004.5
2022-08-25T15:41:15.000Z,1004.6
2022-08-25T15:42:31.000Z,1004.6
2022-08-25T15:43:46.000Z,1004.6
2022-08-25T15:45:02.000Z,1004.6
2022-08-25T15:46:18.000Z,1004.6
2022-08-25T15:47:35.000Z,1004.6
2022-08-25T15:48:51.000Z,1004.6
2022-08-25T15:50:07.000Z,1004.5
2022-08-25T15:51:23.000Z,1004.5
2022-08-25T15:52:39.000Z,1004.6
2022-08-25T15:53:56.000Z,1004.5
2022-08-25T15:55:12.000Z,1004.5